createdAt,value
2023-05-17T00:00:31.316Z,128.08
2023-05-17T00:01:31.312Z,126.43
2023-05-17T00:02:31.303Z,128.78
2023-05-17T00:03:31.317Z,129.88
2023-05-17T00:04:31.341Z,131.21
2023-05-17T00:05:31.256Z,131.32
2023-05-17T00:06:31.255Z,128.58
2023-05-17T00:07:31.224Z,128.18
2023-05-17T00:08:31.213Z,129.98
2023-05-17T00:09:31.214Z,135.71
2023-05-17T00:10:31.208Z,142.34
2023-05-17T00:11:31.193Z,144.57
2023-05-17T00:12:31.170Z,143.69
2023-05-17T00:13:31.163Z,141.85
2023-05-17T00:14:31.156Z,142.34
2023-05-17T00:15:31.126Z,142.09
2023-05-17T00:16:31.143Z,143.57
2023-05-17T00:17:31.197Z,145.45
2023-05-17T00:18:31.151Z,147.12
2023-05-17T00:19:31.132Z,147.65
2023-05-17T00:20:31.054Z,149.64
2023-05-17T00:21:31.117Z,154.51
2023-05-17T00:22:31.036Z,160.78
2023-05-17T00:23:31.024Z,163.79
2023-05-17T00:24:31.048Z,166.08
2023-05-17T00:25:31.241Z,169.12
2023-05-17T00:26:30.982Z,170.69
2023-05-17T00:27:30.978Z,173.90
2023-05-17T00:28:31.010Z,171.04
2023-05-17T00:29:30.966Z,165.75
2023-05-17T00:30:30.953Z,167.76
2023-05-17T00:31:30.935Z,170.16
2023-05-17T00:32:31.005Z,172.10
2023-05-17T00:33:30.911Z,173.72
2023-05-17T00:34:30.903Z,174.45
2023-05-17T00:35:31.019Z,176.67
2023-05-17T00:36:30.910Z,177.81
2023-05-17T00:37:30.878Z,180.12
2023-05-17T00:38:30.846Z,179.73
2023-05-17T00:39:30.869Z,183.70
2023-05-17T00:40:30.837Z,185.75
2023-05-17T00:41:30.822Z,182.49
2023-05-17T00:42:30.812Z,180.71
2023-05-17T00:43:30.786Z,180.71
2023-05-17T00:44:30.777Z,180.90
2023-05-17T00:45:30.754Z,179.92
2023-05-17T00:46:30.756Z,181.69
2023-05-17T00:47:30.783Z,181.30
2023-05-17T00:48:30.970Z,184.52
2023-05-17T00:49:30.711Z,187.25
2023-05-17T00:50:30.716Z,189.09
2023-05-17T00:51:30.696Z,188.66
2023-05-17T00:52:30.688Z,186.61
2023-05-17T00:53:30.674Z,186.93
2023-05-17T00:54:30.663Z,187.79
2023-05-17T00:55:30.821Z,187.57
2023-05-17T00:56:30.622Z,188.55
2023-05-17T00:57:30.637Z,189.20
2023-05-17T00:58:30.598Z,190.19
2023-05-17T00:59:30.579Z,190.30
2023-05-17T01:00:30.595Z,190.19
2023-05-17T01:01:30.567Z,190.53
2023-05-17T01:02:30.617Z,191.20
2023-05-17T01:03:30.652Z,190.08
2023-05-17T01:04:30.560Z,188.55
2023-05-17T01:05:30.700Z,187.47
2023-05-17T01:06:30.498Z,188.98
2023-05-17T01:07:30.490Z,191.42
2023-05-17T01:08:30.475Z,196.96
2023-05-17T01:09:30.482Z,200.95
2023-05-17T01:10:30.475Z,201.57
2023-05-17T01:11:30.457Z,203.20
2023-05-17T01:12:30.436Z,203.96
2023-05-17T01:13:30.409Z,205.37
2023-05-17T01:14:30.404Z,208.12
2023-05-17T01:15:30.511Z,209.85
2023-05-17T01:16:30.397Z,208.65
2023-05-17T01:17:30.424Z,207.19
2023-05-17T01:18:30.484Z,213.55
2023-05-17T01:19:30.524Z,214.11
2023-05-17T01:20:30.407Z,211.48
2023-05-17T01:21:30.333Z,207.85
2023-05-17T01:22:30.313Z,210.93
2023-05-17T01:23:30.294Z,211.34
2023-05-17T01:24:30.280Z,208.65
2023-05-17T01:25:30.471Z,207.98
2023-05-17T01:26:30.272Z,204.85
2023-05-17T01:27:30.242Z,203.20
2023-05-17T01:28:30.245Z,204.60
2023-05-17T01:29:30.214Z,201.32
2023-05-17T01:30:30.233Z,202.19
2023-05-17T01:31:30.193Z,201.20
2023-05-17T01:32:30.254Z,199.36
2023-05-17T01:33:30.313Z,196.60
2023-05-17T01:34:30.177Z,195.31
2023-05-17T01:35:30.282Z,194.73
2023-05-17T01:36:30.155Z,194.96
2023-05-17T01:37:30.124Z,194.73
2023-05-17T01:38:30.141Z,193.46
2023-05-17T01:39:30.112Z,192.09
2023-05-17T01:40:30.087Z,191.31
2023-05-17T01:41:30.094Z,191.76
2023-05-17T01:42:30.078Z,191.64
2023-05-17T01:43:30.059Z,189.75
2023-05-17T01:44:32.977Z,189.97
2023-05-17T01:45:30.250Z,190.19
2023-05-17T01:46:30.027Z,189.86
2023-05-17T01:47:30.046Z,188.66
2023-05-17T01:48:30.050Z,186.19
2023-05-17T01:49:29.985Z,185.34
2023-05-17T01:50:29.964Z,182.49
2023-05-17T01:51:29.986Z,180.31
2023-05-17T01:52:29.940Z,180.31
2023-05-17T01:53:29.921Z,181.49
2023-05-17T01:54:29.923Z,183.90
2023-05-17T01:55:30.097Z,182.89
2023-05-17T01:56:29.902Z,182.09
2023-05-17T01:57:29.906Z,181.49
2023-05-17T01:58:29.896Z,184.11
2023-05-17T01:59:29.863Z,183.50
2023-05-17T02:00:29.911Z,181.49
2023-05-17T02:01:29.841Z,180.31
2023-05-17T02:02:29.839Z,179.54
2023-05-17T02:03:29.861Z,177.43
2023-05-17T02:04:29.813Z,176.67
2023-05-17T02:05:30.155Z,174.45
2023-05-17T02:06:29.768Z,173.00
2023-05-17T02:07:29.759Z,174.63
2023-05-17T02:08:29.739Z,172.64
2023-05-17T02:09:29.736Z,173.90
2023-05-17T02:10:29.726Z,176.11
2023-05-17T02:11:29.718Z,176.67
2023-05-17T02:12:29.708Z,172.46
2023-05-17T02:13:29.692Z,168.44
2023-05-17T02:14:29.671Z,167.76
2023-05-17T02:15:29.930Z,167.76
2023-05-17T02:16:29.638Z,164.93
2023-05-17T02:17:29.729Z,164.44
2023-05-17T02:18:29.668Z,165.09
2023-05-17T02:19:29.851Z,167.76
2023-05-17T02:20:29.606Z,168.78
2023-05-17T02:21:29.572Z,167.09
2023-05-17T02:22:29.582Z,166.42
2023-05-17T02:23:29.561Z,165.92
2023-05-17T02:24:29.556Z,165.59
2023-05-17T02:25:29.775Z,167.59
2023-05-17T02:26:29.544Z,166.92
2023-05-17T02:27:29.530Z,164.28
2023-05-17T02:28:29.504Z,163.31
2023-05-17T02:29:29.520Z,161.25
2023-05-17T02:30:29.530Z,163.31
2023-05-17T02:31:29.462Z,166.92
2023-05-17T02:32:29.550Z,170.16
2023-05-17T02:33:29.532Z,172.28
2023-05-17T02:34:29.443Z,171.39
2023-05-17T02:35:29.587Z,171.04
2023-05-17T02:36:29.392Z,167.09
2023-05-17T02:37:29.369Z,166.92
2023-05-17T02:38:29.395Z,165.75
2023-05-17T02:39:29.348Z,165.09
2023-05-17T02:40:29.353Z,166.58
2023-05-17T02:41:29.338Z,165.26
2023-05-17T02:42:29.332Z,165.26
2023-05-17T02:43:29.308Z,165.59
2023-05-17T02:44:29.298Z,164.93
2023-05-17T02:45:29.527Z,165.42
2023-05-17T02:46:29.262Z,167.09
2023-05-17T02:47:29.395Z,171.04
2023-05-17T02:48:29.275Z,173.54
2023-05-17T02:49:29.221Z,175.93
2023-05-17T02:50:29.223Z,175.74
2023-05-17T02:51:29.202Z,175.55
2023-05-17T02:52:29.193Z,179.92
2023-05-17T02:53:29.191Z,183.90
2023-05-17T02:54:29.160Z,180.90
2023-05-17T02:55:29.401Z,182.69
2023-05-17T02:56:29.129Z,186.17
2023-05-17T02:57:29.136Z,186.29
2023-05-17T02:58:29.115Z,187.68
2023-05-17T02:59:29.122Z,187.04
2023-05-17T03:00:29.080Z,187.68
2023-05-17T03:01:29.072Z,188.33
2023-05-17T03:02:29.224Z,188.11
2023-05-17T03:03:29.153Z,183.30
2023-05-17T03:04:29.062Z,186.61
2023-05-17T03:05:29.340Z,191.31
2023-05-17T03:06:29.017Z,191.08
2023-05-17T03:07:29.036Z,191.42
2023-05-17T03:08:29.006Z,188.44
2023-05-17T03:09:28.996Z,187.04
2023-05-17T03:10:28.984Z,190.30
2023-05-17T03:11:28.965Z,193.57
2023-05-17T03:12:29.663Z,195.77
2023-05-17T03:13:28.918Z,193.80
2023-05-17T03:14:28.921Z,190.97
2023-05-17T03:15:29.137Z,188.98
2023-05-17T03:16:28.882Z,190.19
2023-05-17T03:17:28.973Z,192.89
2023-05-17T03:18:29.484Z,197.07
2023-05-17T03:19:28.917Z,200.21
2023-05-17T03:20:28.863Z,200.83
2023-05-17T03:21:28.822Z,200.21
2023-05-17T03:22:28.817Z,197.31
2023-05-17T03:23:28.807Z,193.69
2023-05-17T03:24:28.799Z,195.54
2023-05-17T03:25:29.092Z,190.53
2023-05-17T03:26:28.767Z,190.30
2023-05-17T03:27:28.791Z,189.86
2023-05-17T03:28:28.744Z,188.77
2023-05-17T03:29:28.737Z,191.31
2023-05-17T03:30:28.722Z,185.45
2023-05-17T03:31:28.708Z,191.20
2023-05-17T03:32:28.726Z,198.15
2023-05-17T03:33:28.756Z,204.85
2023-05-17T03:34:28.669Z,208.65
2023-05-17T03:35:28.945Z,213.41
2023-05-17T03:36:28.665Z,213.41
2023-05-17T03:37:28.624Z,213.83
2023-05-17T03:38:28.600Z,203.96
2023-05-17T03:39:28.612Z,192.43
2023-05-17T03:40:28.600Z,190.41
2023-05-17T03:41:28.565Z,187.04
2023-05-17T03:42:28.550Z,190.64
2023-05-17T03:43:28.556Z,192.21
2023-05-17T03:44:28.536Z,193.92
2023-05-17T03:45:28.826Z,186.82
2023-05-17T03:46:28.534Z,193.80
2023-05-17T03:47:28.500Z,196.24
2023-05-17T03:48:28.525Z,198.27
2023-05-17T03:49:28.497Z,198.51
2023-05-17T03:50:28.469Z,203.32
2023-05-17T03:51:28.447Z,202.70
2023-05-17T03:52:28.424Z,199.72
2023-05-17T03:53:28.426Z,205.11
2023-05-17T03:54:28.403Z,207.32
2023-05-17T03:55:28.653Z,200.21
2023-05-17T03:56:28.390Z,199.85
2023-05-17T03:57:28.375Z,199.85
2023-05-17T03:58:28.364Z,201.32
2023-05-17T03:59:28.376Z,198.75
2023-05-17T04:00:28.425Z,191.64
2023-05-17T04:01:28.316Z,194.38
2023-05-17T04:02:28.348Z,200.09
2023-05-17T04:03:28.326Z,205.37
2023-05-17T04:04:28.435Z,206.67
2023-05-17T04:05:28.496Z,201.57
2023-05-17T04:06:28.261Z,202.82
2023-05-17T04:07:28.245Z,207.85
2023-05-17T04:08:28.230Z,207.72
2023-05-17T04:09:28.226Z,207.32
2023-05-17T04:10:28.215Z,209.45
2023-05-17T04:11:28.216Z,214.39
2023-05-17T04:12:28.187Z,215.81
2023-05-17T04:13:28.169Z,213.27
2023-05-17T04:14:28.159Z,218.40
2023-05-17T04:15:28.385Z,219.73
2023-05-17T04:16:28.144Z,218.55
2023-05-17T04:17:28.190Z,215.38
2023-05-17T04:18:28.106Z,201.07
2023-05-17T04:19:28.482Z,192.66
2023-05-17T04:20:28.102Z,193.57
2023-05-17T04:21:28.085Z,197.07
2023-05-17T04:22:28.063Z,195.19
2023-05-17T04:23:28.045Z,193.92
2023-05-17T04:24:28.044Z,191.64
2023-05-17T04:25:28.202Z,184.72
2023-05-17T04:26:28.015Z,181.69
2023-05-17T04:27:28.032Z,179.54
2023-05-17T04:28:28.001Z,178.57
2023-05-17T04:29:27.973Z,184.11
2023-05-17T04:30:28.013Z,188.77
2023-05-17T04:31:27.939Z,198.87
2023-05-17T04:32:27.974Z,206.41
2023-05-17T04:33:28.018Z,209.58
2023-05-17T04:34:27.903Z,212.17
2023-05-17T04:35:28.129Z,213.97
2023-05-17T04:36:27.887Z,203.32
2023-05-17T04:37:27.898Z,196.13
2023-05-17T04:38:27.861Z,196.36
2023-05-17T04:39:30.081Z,197.43
2023-05-17T04:40:27.845Z,202.07
2023-05-17T04:41:27.828Z,203.71
2023-05-17T04:42:27.820Z,205.63
2023-05-17T04:43:27.798Z,191.98
2023-05-17T04:44:27.778Z,187.90
2023-05-17T04:45:27.983Z,197.91
2023-05-17T04:46:27.801Z,211.07
2023-05-17T04:47:27.803Z,213.14
2023-05-17T04:48:27.910Z,213.27
2023-05-17T04:49:27.728Z,219.73
2023-05-17T04:50:27.707Z,214.68
2023-05-17T04:51:27.722Z,214.68
2023-05-17T04:52:27.695Z,216.67
2023-05-17T04:53:27.730Z,216.81
2023-05-17T04:54:27.665Z,217.24
2023-05-17T04:55:27.930Z,216.96
2023-05-17T04:56:27.643Z,215.95
2023-05-17T04:57:27.631Z,214.82
2023-05-17T04:58:27.601Z,218.99
2023-05-17T04:59:27.617Z,216.38
2023-05-17T05:00:27.608Z,208.12
2023-05-17T05:01:27.596Z,210.53
2023-05-17T05:02:27.595Z,210.53
2023-05-17T05:03:27.572Z,213.14
2023-05-17T05:04:27.574Z,213.69
2023-05-17T05:05:27.676Z,219.28
2023-05-17T05:06:27.517Z,215.52
2023-05-17T05:07:27.591Z,217.24
2023-05-17T05:08:27.494Z,209.58
2023-05-17T05:09:27.566Z,187.36
2023-05-17T05:10:27.463Z,179.34
2023-05-17T05:11:27.446Z,177.43
2023-05-17T05:12:27.441Z,185.34
2023-05-17T05:13:27.437Z,194.73
2023-05-17T05:14:27.413Z,199.48
2023-05-17T05:15:27.634Z,190.75
2023-05-17T05:16:27.386Z,180.51
2023-05-17T05:17:27.451Z,180.51
2023-05-17T05:18:27.499Z,184.11
2023-05-17T05:19:27.368Z,191.53
2023-05-17T05:20:28.252Z,199.97
2023-05-17T05:21:27.360Z,207.59
2023-05-17T05:22:27.326Z,211.76
2023-05-17T05:23:27.303Z,215.10
2023-05-17T05:24:27.346Z,216.81
2023-05-17T05:25:27.410Z,224.25
2023-05-17T05:26:27.268Z,223.94
2023-05-17T05:27:27.257Z,228.96
2023-05-17T05:28:27.248Z,224.87
2023-05-17T05:29:27.236Z,227.68
2023-05-17T05:30:27.211Z,234.55
2023-05-17T05:31:27.245Z,232.54
2023-05-17T05:32:27.240Z,226.11
2023-05-17T05:33:27.338Z,222.42
2023-05-17T05:34:27.155Z,221.36
2023-05-17T05:35:27.235Z,222.72
2023-05-17T05:36:27.163Z,228.48
2023-05-17T05:37:27.171Z,232.88
2023-05-17T05:38:27.124Z,232.21
2023-05-17T05:39:27.120Z,237.27
2023-05-17T05:40:27.211Z,244.00
2023-05-17T05:41:27.112Z,250.35
2023-05-17T05:42:27.062Z,251.90
2023-05-17T05:43:27.074Z,254.05
2023-05-17T05:44:27.046Z,253.07
2023-05-17T05:45:27.054Z,250.74
2023-05-17T05:46:27.034Z,250.93
2023-05-17T05:47:27.010Z,248.26
2023-05-17T05:48:27.078Z,244.73
2023-05-17T05:49:26.985Z,239.53
2023-05-17T05:50:27.198Z,243.09
2023-05-17T05:51:26.980Z,242.91
2023-05-17T05:52:26.950Z,246.95
2023-05-17T05:53:26.942Z,249.97
2023-05-17T05:54:27.032Z,255.24
2023-05-17T05:55:26.906Z,257.45
2023-05-17T05:56:26.905Z,253.07
2023-05-17T05:57:26.906Z,261.99
2023-05-17T05:58:26.896Z,257.86
2023-05-17T05:59:26.866Z,257.86
2023-05-17T06:00:26.984Z,255.64
2023-05-17T06:01:26.854Z,251.32
2023-05-17T06:02:26.869Z,250.93
2023-05-17T06:03:26.816Z,256.64
2023-05-17T06:04:33.108Z,251.90
2023-05-17T06:05:26.860Z,245.10
2023-05-17T06:06:26.819Z,239.53
2023-05-17T06:07:26.814Z,230.09
2023-05-17T06:08:26.752Z,211.89
2023-05-17T06:09:26.730Z,198.27
2023-05-17T06:10:26.841Z,198.39
2023-05-17T06:11:26.711Z,191.08
2023-05-17T06:12:27.631Z,181.30
2023-05-17T06:13:26.702Z,181.69
2023-05-17T06:14:26.664Z,186.19
2023-05-17T06:15:26.681Z,189.97
2023-05-17T06:16:26.663Z,195.42
2023-05-17T06:17:26.730Z,202.19
2023-05-17T06:18:26.775Z,210.66
2023-05-17T06:19:26.772Z,221.21
2023-05-17T06:20:26.739Z,228.64
2023-05-17T06:21:26.604Z,234.71
2023-05-17T06:22:26.562Z,239.53
2023-05-17T06:23:26.573Z,237.61
2023-05-17T06:24:26.536Z,236.41
2023-05-17T06:25:26.543Z,232.71
2023-05-17T06:26:26.538Z,226.58
2023-05-17T06:27:26.529Z,218.40
2023-05-17T06:28:26.517Z,219.87
2023-05-17T06:29:26.485Z,213.69
2023-05-17T06:30:26.500Z,200.34
2023-05-17T06:31:26.474Z,197.55
2023-05-17T06:32:26.494Z,204.47
2023-05-17T06:33:26.516Z,213.97
2023-05-17T06:34:26.411Z,215.24
2023-05-17T06:35:26.546Z,186.93
2023-05-17T06:36:26.414Z,165.09
2023-05-17T06:37:26.514Z,163.15
2023-05-17T06:38:26.380Z,176.86
2023-05-17T06:39:26.377Z,191.42
2023-05-17T06:40:26.349Z,200.58
2023-05-17T06:41:26.366Z,210.66
2023-05-17T06:42:26.360Z,209.31
2023-05-17T06:43:26.298Z,205.11
2023-05-17T06:44:26.301Z,213.27
2023-05-17T06:45:26.297Z,225.02
2023-05-17T06:46:26.446Z,235.90
2023-05-17T06:47:26.317Z,235.56
2023-05-17T06:48:26.410Z,237.79
2023-05-17T06:49:26.257Z,241.48
2023-05-17T06:50:26.355Z,245.65
2023-05-17T06:51:26.224Z,248.83
2023-05-17T06:52:27.312Z,247.14
2023-05-17T06:53:26.192Z,247.70
2023-05-17T06:54:26.192Z,240.41
2023-05-17T06:55:26.153Z,248.07
2023-05-17T06:56:26.165Z,257.05
2023-05-17T06:57:26.135Z,258.88
2023-05-17T06:58:26.126Z,259.08
2023-05-17T06:59:26.112Z,249.02
2023-05-17T07:00:26.152Z,243.09
2023-05-17T07:01:26.086Z,240.94
2023-05-17T07:02:26.091Z,235.22
2023-05-17T07:03:26.091Z,237.10
2023-05-17T07:04:26.156Z,242.91
2023-05-17T07:05:26.139Z,244.73
2023-05-17T07:06:26.034Z,250.16
2023-05-17T07:07:26.120Z,239.35
2023-05-17T07:08:26.012Z,233.21
2023-05-17T07:09:26.027Z,223.79
2023-05-17T07:10:25.985Z,221.51
2023-05-17T07:11:26.046Z,226.42
2023-05-17T07:12:25.993Z,230.41
2023-05-17T07:13:25.975Z,234.38
2023-05-17T07:14:26.050Z,236.24
2023-05-17T07:15:25.938Z,227.05
2023-05-17T07:16:25.927Z,229.28
2023-05-17T07:17:25.931Z,229.76
2023-05-17T07:18:26.021Z,234.71
2023-05-17T07:19:26.106Z,237.44
2023-05-17T07:20:25.928Z,238.83
2023-05-17T07:21:25.869Z,243.64
2023-05-17T07:22:25.840Z,249.59
2023-05-17T07:23:25.824Z,244.00
2023-05-17T07:24:25.827Z,227.37
2023-05-17T07:25:25.904Z,213.69
2023-05-17T07:26:25.784Z,200.70
2023-05-17T07:27:25.794Z,202.19
2023-05-17T07:28:25.778Z,203.32
2023-05-17T07:29:25.738Z,216.09
2023-05-17T07:30:25.794Z,217.82
2023-05-17T07:31:25.730Z,206.28
2023-05-17T07:32:25.746Z,191.87
2023-05-17T07:33:25.703Z,200.95
2023-05-17T07:34:25.705Z,202.95
2023-05-17T07:35:25.686Z,185.75
2023-05-17T07:36:25.727Z,195.31
2023-05-17T07:37:25.644Z,208.78
2023-05-17T07:38:25.641Z,225.33
2023-05-17T07:39:25.635Z,228.32
2023-05-17T07:40:25.685Z,206.93
2023-05-17T07:41:25.605Z,192.77
2023-05-17T07:42:25.608Z,174.82
2023-05-17T07:43:25.614Z,170.34
2023-05-17T07:44:25.571Z,193.12
2023-05-17T07:45:26.162Z,219.43
2023-05-17T07:46:25.585Z,243.27
2023-05-17T07:47:25.610Z,258.27
2023-05-17T07:48:25.561Z,278.98
2023-05-17T07:49:25.673Z,285.82
2023-05-17T07:50:25.631Z,283.09
2023-05-17T07:51:25.485Z,274.99
2023-05-17T07:52:25.726Z,285.07
2023-05-17T07:53:25.462Z,298.34
2023-05-17T07:54:25.471Z,304.17
2023-05-17T07:55:25.531Z,312.90
2023-05-17T07:56:25.430Z,298.06
2023-05-17T07:57:25.407Z,263.68
2023-05-17T07:58:25.403Z,244.18
2023-05-17T07:59:25.391Z,253.46
2023-05-17T08:00:25.600Z,257.65
2023-05-17T08:01:25.373Z,269.77
2023-05-17T08:02:25.363Z,269.33
2023-05-17T08:03:25.383Z,269.55
2023-05-17T08:04:25.357Z,265.18
2023-05-17T08:05:25.337Z,246.95
2023-05-17T08:06:25.383Z,241.83
2023-05-17T08:07:25.306Z,212.72
2023-05-17T08:08:25.279Z,188.88
2023-05-17T08:09:25.276Z,190.30
2023-05-17T08:10:25.264Z,184.31
2023-05-17T08:11:25.273Z,193.69
2023-05-17T08:12:25.297Z,202.19
2023-05-17T08:13:25.253Z,215.10
2023-05-17T08:14:25.211Z,228.96
2023-05-17T08:15:25.201Z,243.82
2023-05-17T08:16:25.223Z,237.44
2023-05-17T08:17:25.235Z,234.38
2023-05-17T08:18:25.243Z,229.44
2023-05-17T08:19:25.246Z,241.12
2023-05-17T08:21:31.680Z,282.11
2023-05-17T08:22:25.160Z,294.57
2023-05-17T08:23:25.101Z,301.36
2023-05-17T08:24:25.115Z,303.04
2023-05-17T08:25:25.094Z,311.11
2023-05-17T08:26:25.082Z,323.11
2023-05-17T08:27:25.055Z,325.03
2023-05-17T08:28:25.048Z,320.89
2023-05-17T08:29:25.044Z,321.83
2023-05-17T08:31:25.029Z,298.88
2023-05-17T08:32:25.034Z,289.10
2023-05-17T08:33:25.166Z,300.81
2023-05-17T08:34:25.000Z,271.12
2023-05-17T08:35:26.889Z,226.27
2023-05-17T08:36:24.990Z,205.37
2023-05-17T08:37:24.976Z,227.84
2023-05-17T08:38:24.961Z,253.07
2023-05-17T08:39:24.905Z,271.79
2023-05-17T08:40:24.964Z,286.32
2023-05-17T08:41:24.898Z,306.73
2023-05-17T08:42:24.876Z,314.71
2023-05-17T08:43:26.836Z,310.52
2023-05-17T08:44:24.852Z,278.04
2023-05-17T08:45:24.833Z,268.67
2023-05-17T08:46:24.857Z,259.29
2023-05-17T08:47:24.862Z,268.01
2023-05-17T08:48:24.937Z,276.39
2023-05-17T08:49:24.861Z,287.83
2023-05-17T08:50:24.809Z,290.13
2023-05-17T08:51:24.790Z,298.06
2023-05-17T08:52:24.757Z,303.60
2023-05-17T08:53:24.787Z,299.43
2023-05-17T08:54:24.752Z,288.85
2023-05-17T08:55:24.740Z,261.15
2023-05-17T08:56:24.707Z,276.62
2023-05-17T08:57:24.699Z,286.57
2023-05-17T08:58:24.700Z,290.39
2023-05-17T08:59:24.684Z,279.46
2023-05-17T09:00:24.652Z,255.84
2023-05-17T09:01:26.443Z,254.45
2023-05-17T09:02:24.745Z,268.45
2023-05-17T09:03:24.822Z,283.09
2023-05-17T09:04:24.646Z,293.51
2023-05-17T09:05:24.631Z,279.46
2023-05-17T09:06:24.588Z,222.87
2023-05-17T09:07:24.590Z,214.53
2023-05-17T09:08:24.594Z,242.01
2023-05-17T09:09:24.541Z,239.71
2023-05-17T09:10:24.535Z,237.10
2023-05-17T09:11:24.533Z,255.24
2023-05-17T09:12:25.777Z,255.04
2023-05-17T09:13:24.529Z,250.16
2023-05-17T09:14:24.889Z,257.65
2023-05-17T09:15:24.485Z,251.70
2023-05-17T09:16:24.546Z,254.84
2023-05-17T09:17:24.482Z,266.04
2023-05-17T09:18:24.518Z,268.23
2023-05-17T09:19:24.613Z,257.45
2023-05-17T09:20:24.504Z,256.85
2023-05-17T09:21:24.441Z,265.61
2023-05-17T09:22:24.424Z,278.75
2023-05-17T09:23:24.397Z,263.68
2023-05-17T09:24:25.194Z,246.95
2023-05-17T09:25:24.382Z,256.24
2023-05-17T09:26:24.338Z,248.83
2023-05-17T09:27:24.373Z,255.84
2023-05-17T09:28:24.332Z,261.99
2023-05-17T09:29:24.301Z,223.94
2023-05-17T09:30:25.181Z,216.81
2023-05-17T09:31:24.274Z,204.85
2023-05-17T09:32:24.329Z,226.11
2023-05-17T09:33:24.325Z,245.46
2023-05-17T09:34:24.249Z,249.02
2023-05-17T09:35:24.241Z,243.27
2023-05-17T09:36:24.344Z,251.70
2023-05-17T09:37:24.213Z,263.26
2023-05-17T09:38:25.402Z,296.71
2023-05-17T09:39:24.183Z,309.35
2023-05-17T09:40:24.251Z,317.77
2023-05-17T09:41:24.322Z,304.73
2023-05-17T09:42:24.169Z,296.17
2023-05-17T09:43:24.145Z,291.94
2023-05-17T09:44:25.320Z,270.44
2023-05-17T09:45:24.108Z,260.11
2023-05-17T09:46:24.093Z,274.99
2023-05-17T09:47:24.128Z,295.10
2023-05-17T09:48:24.224Z,303.04
2023-05-17T09:49:24.055Z,317.46
2023-05-17T09:50:26.087Z,339.20
2023-05-17T09:51:24.032Z,324.39
2023-05-17T09:52:24.048Z,310.23
2023-05-17T09:53:24.002Z,335.37
2023-05-17T09:54:24.013Z,341.68
2023-05-17T09:55:24.006Z,345.29
2023-05-17T09:56:23.990Z,341.32
2023-05-17T09:57:23.963Z,318.70
2023-05-17T09:58:23.993Z,320.57
2023-05-17T09:59:23.928Z,350.10
2023-05-17T10:00:23.948Z,367.83
2023-05-17T10:01:23.907Z,370.75
2023-05-17T10:02:23.949Z,355.81
2023-05-17T10:03:24.089Z,340.61
2023-05-17T10:04:23.862Z,358.55
2023-05-17T10:05:23.873Z,364.54
2023-05-17T10:06:39.040Z,377.16
2023-05-17T10:07:23.864Z,366.59
2023-05-17T10:08:23.824Z,331.63
2023-05-17T10:09:23.799Z,358.94
2023-05-17T10:10:23.808Z,375.86
2023-05-17T10:11:23.768Z,399.72
2023-05-17T10:12:25.429Z,375.43
2023-05-17T10:13:23.753Z,372.43
2023-05-17T10:14:23.762Z,385.35
2023-05-17T10:15:23.710Z,393.80
2023-05-17T10:16:23.710Z,405.33
2023-05-17T10:17:23.686Z,413.92
2023-05-17T10:18:23.833Z,408.57
2023-05-17T10:19:23.735Z,377.16
2023-05-17T10:20:23.652Z,322.79
2023-05-17T10:21:23.681Z,284.08
2023-05-17T10:22:24.106Z,256.04
2023-05-17T10:23:23.642Z,226.58
2023-05-17T10:24:23.606Z,199.72
2023-05-17T10:25:23.594Z,201.82
2023-05-17T10:26:23.572Z,199.97
2023-05-17T10:27:23.569Z,193.46
2023-05-17T10:28:23.582Z,182.69
2023-05-17T10:29:23.525Z,173.54
2023-05-17T10:30:23.512Z,177.05
2023-05-17T10:31:23.506Z,179.15
2023-05-17T10:32:23.760Z,179.73
2023-05-17T10:33:23.575Z,171.04
2023-05-17T10:34:23.507Z,161.25
2023-05-17T10:35:23.514Z,170.16
2023-05-17T10:36:23.474Z,176.67
2023-05-17T10:37:23.433Z,181.30
2023-05-17T10:38:26.302Z,187.25
2023-05-17T10:39:23.409Z,196.36
2023-05-17T10:40:23.391Z,187.04
2023-05-17T10:41:23.410Z,176.11
2023-05-17T10:42:23.384Z,185.55
2023-05-17T10:43:23.354Z,202.82
2023-05-17T10:44:23.362Z,213.41
2023-05-17T10:45:23.336Z,211.62
2023-05-17T10:46:23.333Z,212.44
2023-05-17T10:47:23.383Z,207.45
2023-05-17T10:48:23.376Z,225.64
2023-05-17T10:49:24.746Z,252.48
2023-05-17T10:50:23.294Z,276.86
2023-05-17T10:51:23.265Z,281.87
2023-05-17T10:52:23.263Z,263.05
2023-05-17T10:53:23.248Z,255.64
2023-05-17T10:54:23.239Z,262.62
2023-05-17T10:55:23.228Z,270.67
2023-05-17T10:56:23.221Z,265.39
2023-05-17T10:57:23.200Z,251.12
2023-05-17T10:58:23.164Z,259.70
2023-05-17T10:59:23.281Z,267.13
2023-05-17T11:00:23.157Z,268.23
2023-05-17T11:01:23.134Z,258.67
2023-05-17T11:02:23.190Z,260.95
2023-05-17T11:03:23.145Z,258.06
2023-05-17T11:04:23.150Z,277.33
2023-05-17T11:05:23.135Z,282.11
2023-05-17T11:06:24.889Z,288.34
2023-05-17T11:07:23.059Z,290.39
2023-05-17T11:08:23.050Z,287.83
2023-05-17T11:09:23.074Z,288.85
2023-05-17T11:10:23.057Z,289.87
2023-05-17T11:11:23.036Z,296.71
2023-05-17T11:12:23.001Z,307.31
2023-05-17T11:13:22.998Z,296.17
2023-05-17T11:14:22.987Z,275.23
2023-05-17T11:15:22.984Z,250.93
2023-05-17T11:16:22.955Z,228.80
2023-05-17T11:17:22.966Z,220.32
2023-05-17T11:18:30.038Z,238.31
2023-05-17T11:19:23.080Z,273.61
2023-05-17T11:20:22.992Z,298.88
2023-05-17T11:21:22.914Z,301.92
2023-05-17T11:22:22.880Z,301.64
2023-05-17T11:23:22.872Z,303.32
2023-05-17T11:24:22.874Z,315.62
2023-05-17T11:25:22.874Z,328.30
2023-05-17T11:26:22.847Z,343.84
2023-05-17T11:27:22.821Z,349.35
2023-05-17T11:28:22.837Z,359.33
2023-05-17T11:29:22.807Z,362.92
2023-05-17T11:30:22.809Z,369.49
2023-05-17T11:31:22.769Z,396.38
2023-05-17T11:32:22.819Z,410.59
2023-05-17T11:33:32.772Z,384.45
2023-05-17T11:34:22.781Z,375.43
2023-05-17T11:35:22.777Z,371.17
2023-05-17T11:36:22.705Z,362.92
2023-05-17T11:37:22.693Z,376.29
2023-05-17T11:38:22.672Z,385.12
2023-05-17T11:39:22.666Z,390.33
2023-05-17T11:40:22.674Z,370.75
2023-05-17T11:41:26.907Z,341.32
2023-05-17T11:42:22.636Z,359.73
2023-05-17T11:43:22.622Z,358.94
2023-05-17T11:44:22.598Z,359.33
2023-05-17T11:45:24.790Z,365.77
2023-05-17T11:46:22.604Z,375.43
2023-05-17T11:47:22.756Z,384.01
2023-05-17T11:48:22.765Z,384.90
2023-05-17T11:49:34.387Z,374.14
2023-05-17T11:50:22.629Z,349.35
2023-05-17T11:51:24.871Z,338.15
2023-05-17T11:52:22.504Z,359.73
2023-05-17T11:53:22.490Z,362.52
2023-05-17T11:54:22.471Z,325.68
2023-05-17T11:55:22.517Z,335.37
2023-05-17T11:56:29.023Z,338.50
2023-05-17T11:57:22.442Z,370.33
2023-05-17T11:58:22.421Z,386.24
2023-05-17T11:59:22.405Z,372.01
2023-05-17T12:00:22.397Z,365.77
2023-05-17T12:01:22.396Z,382.90
2023-05-17T12:02:22.395Z,382.46
2023-05-17T12:03:22.365Z,395.67
2023-05-17T12:04:22.374Z,409.33
2023-05-17T12:05:22.332Z,419.67
2023-05-17T12:06:22.321Z,426.13
2023-05-17T12:07:22.299Z,431.67
2023-05-17T12:08:22.280Z,442.01
2023-05-17T12:09:22.309Z,453.47
2023-05-17T12:10:22.248Z,450.40
2023-05-17T12:11:22.254Z,435.34
2023-05-17T12:12:22.229Z,419.40
2023-05-17T12:13:22.244Z,382.24
2023-05-17T12:14:22.223Z,391.71
2023-05-17T12:15:22.188Z,381.80
2023-05-17T12:16:22.214Z,374.57
2023-05-17T12:17:22.160Z,375.00
2023-05-17T12:18:22.200Z,351.98
2023-05-17T12:19:22.279Z,324.39
2023-05-17T12:20:22.176Z,326.01
2023-05-17T12:21:22.117Z,314.10
2023-05-17T12:22:22.112Z,340.26
2023-05-17T12:23:22.097Z,354.66
2023-05-17T12:24:22.139Z,372.01
2023-05-17T12:25:22.060Z,387.82
2023-05-17T12:26:22.056Z,399.24
2023-05-17T12:27:22.046Z,415.47
2023-05-17T12:28:22.078Z,425.31
2023-05-17T12:29:22.005Z,425.86
2023-05-17T12:30:21.985Z,392.63